»·PEaware :: N5724J KAEG-KALM

N5724J :: KAEG-KALM

FLIGHT INFORMATION

Flight Status: Arrived
Operator: Privately registered:
United States
More flights under this callsign
Pilot: Anonymous 14019 (14019)
Aircraft: GATES LEARJET LEARJET 25
(LJ25)
More flights by this aircraft type
Origin: KAEG Double Eagle Ii
United States
Destination: KALM Alamogordo-White Sands Regl
United States
More flights between these airports :: More routes between these airports
Route: CNX
File this flight plan on PilotEdge
Remarks: Real World Commercial Single Engine / Multi Engine Pilot
Altitude:
(Current/Filed)
27,000ft
Speed:
(Current/Filed)
460kts
Departed: 17-Feb-17 09:44 AM
Arrived: 17-Feb-17 10:15 AM
Distance/Time
Traveled:
144nm/0:31
Distance/Time
To Go:
Arrived

Flight Plot

Page will automatically refresh every two minutes.

Flight plan parsing failed; only flown route is shown


Map Options




Map Legend


Flown Route
Filed Route
Departure Airport
Arrival Airport
Navaid (VOR, NDB)
Fix

Horizontal Profiles

Position Reports

Time Latitude Longitude Heading Altitude Ground
Speed
17-Feb-17 09:26 35.159003 -106.792225 270 5840ft 0kts
17-Feb-17 09:27 35.159003 -106.792225 270 5840ft 0kts
17-Feb-17 09:28 35.159003 -106.792225 270 5840ft 0kts
17-Feb-17 09:29 35.159003 -106.792225 270 5840ft 0kts
17-Feb-17 09:30 35.159003 -106.792225 270 5840ft 0kts
17-Feb-17 09:31 35.159003 -106.792225 270 5840ft 0kts
17-Feb-17 09:32 35.159003 -106.792225 270 5840ft 0kts
17-Feb-17 09:33 35.158884 -106.792266 119 5840ft 5kts
17-Feb-17 09:34 35.158634 -106.791030 166 5840ft 8kts
17-Feb-17 09:35 35.156758 -106.791170 136 5840ft 7kts
17-Feb-17 09:36 35.153983 -106.790137 180 5840ft 12kts
17-Feb-17 09:37 35.152815 -106.790131 177 5840ft 0kts
17-Feb-17 09:38 35.152467 -106.789745 89 5840ft 0kts
17-Feb-17 09:39 35.152467 -106.789740 89 5840ft 0kts
17-Feb-17 09:40 35.152466 -106.789620 90 5840ft 2kts
17-Feb-17 09:41 35.152466 -106.789609 90 5840ft 0kts
17-Feb-17 09:42 35.152372 -106.788883 177 5840ft 0kts
17-Feb-17 09:43 35.152082 -106.788889 182 5840ft 19kts
17-Feb-17 09:44 35.120042 -106.789195 181 6166ft 202kts
17-Feb-17 09:45 35.066057 -106.745584 125 10577ft 287kts
17-Feb-17 09:47 35.008840 -106.654772 128 13935ft 386kts
17-Feb-17 09:48 34.938432 -106.547333 127 16540ft 420kts
17-Feb-17 09:49 34.866769 -106.437098 127 20402ft 408kts
17-Feb-17 09:50 34.798519 -106.332430 127 24259ft 377kts
17-Feb-17 09:51 34.732033 -106.230580 127 26703ft 404kts
17-Feb-17 09:52 34.655177 -106.113289 127 27008ft 485kts
17-Feb-17 09:53 34.572374 -105.987527 127 26991ft 471kts
17-Feb-17 09:54 34.491566 -105.865157 126 26973ft 460kts
17-Feb-17 09:55 34.411353 -105.745020 131 26972ft 456kts
17-Feb-17 09:56 34.297536 -105.691918 187 26978ft 448kts
17-Feb-17 09:56 34.195848 -105.713539 192 26978ft 445kts
17-Feb-17 09:58 34.053618 -105.743146 192 26981ft 445kts
17-Feb-17 09:59 33.931223 -105.768421 194 26982ft 445kts
17-Feb-17 10:00 33.802740 -105.794743 193 24981ft 497kts
17-Feb-17 10:01 33.671482 -105.821434 193 22510ft 448kts
17-Feb-17 10:02 33.552206 -105.845694 192 19854ft 419kts
17-Feb-17 10:03 33.440484 -105.868417 192 16838ft 394kts
17-Feb-17 10:03 33.352456 -105.886304 192 14961ft 374kts
17-Feb-17 10:04 33.250272 -105.906877 192 14981ft 387kts
17-Feb-17 10:05 33.141307 -105.928798 192 14976ft 394kts
17-Feb-17 10:07 33.018122 -105.953564 192 14991ft 377kts
17-Feb-17 10:08 32.919809 -105.973288 193 13657ft 327kts
17-Feb-17 10:09 32.835684 -105.990050 193 11062ft 296kts
17-Feb-17 10:10 32.758775 -106.005304 195 8498ft 262kts
17-Feb-17 10:10 32.703962 -105.991223 129 7004ft 237kts
17-Feb-17 10:12 32.735499 -105.936746 354 6772ft 214kts
17-Feb-17 10:12 32.781850 -105.939387 352 6503ft 184kts
17-Feb-17 10:13 32.832706 -105.937007 345 5755ft 140kts
17-Feb-17 10:14 32.854000 -105.967546 260 4620ft 124kts
17-Feb-17 10:15 32.837237 -105.993940 222 4203ft 32kts
17-Feb-17 10:16 32.833920 -105.998726 316 4203ft 11kts
17-Feb-17 10:17 32.836590 -105.996402 46 4203ft 17kts
17-Feb-17 10:18 32.838736 -105.995165 317 4203ft 6kts
17-Feb-17 10:19 32.839862 -105.994731 40 4203ft 0kts
17-Feb-17 10:20 32.839862 -105.994731 40 4203ft 0kts
17-Feb-17 10:21 32.839862 -105.994731 40 4203ft 0kts
17-Feb-17 10:22 32.839862 -105.994731 40 4203ft 0kts
17-Feb-17 10:23 32.839862 -105.994731 40 4203ft 0kts
17-Feb-17 10:24 32.839862 -105.994731 40 4203ft 0kts
17-Feb-17 10:25 32.839862 -105.994731 40 4203ft 0kts
17-Feb-17 10:26 32.839862 -105.994731 40 4203ft 0kts
17-Feb-17 10:27 32.839862 -105.994731 40 4203ft 0kts
17-Feb-17 10:28 32.839862 -105.994731 40 4203ft 0kts
17-Feb-17 10:29 32.839862 -105.994731 40 4203ft 0kts

Navigation Log

Ident Type
Flight plan parsing failed, navigation log unavailable